Time;durP1;ratioP1;P1;durP2;ratioP2;P2;SDS_P1;SDS_P2;PMS_P1;PMS_P2;Temp;Humidity;BMP_temperature;BMP_pressure;BME280_temperature;BME280_humidity;BME280_pressure;Samples;Min_cycle;Max_cycle;Signal;HPM_P1;HPM_P2
2021/09/29 00:01:54;;;;;;;;;;;;;;;;;;5114668;28;20002;-72
2021/09/29 00:04:20;;;;;;;;;;;;;;;;;;5115256;28;19930;-73
2021/09/29 00:06:47;;;;;;;;;;;;;;;;;;5114590;28;20293;-72
2021/09/29 00:09:13;;;;;;;;;;;;;;;;;;5114852;28;19932;-72
2021/09/29 00:11:39;;;;;;;;;;;;;;;;;;5115138;28;19924;-72
2021/09/29 00:14:05;;;;;;;;;;;;;;;;;;5114772;28;19935;-72
2021/09/29 00:16:32;;;;;;;;;;;;;;;;;;5114952;28;19930;-72
2021/09/29 00:18:58;;;;;;;;;;;;;;;;;;5114418;28;20394;-72
2021/09/29 00:21:24;;;;;;;;;;;;;;;;;;5114809;28;19946;-72
2021/09/29 00:23:51;;;;;;;;;;;;;;;;;;5114519;28;19931;-72
2021/09/29 00:26:17;;;;;;;;;;;;;;;;;;5114237;28;20401;-72
2021/09/29 00:28:43;;;;;;;;;;;;;;;;;;5114110;28;19924;-72
2021/09/29 00:31:23;;;;;;;;;;;;;;;;;;5114673;28;19924;-72
2021/09/29 00:33:50;;;;;;;;;;;;;;;;;;5114088;28;20285;-72
2021/09/29 00:36:16;;;;;;;;;;;;;;;;;;5114329;28;19970;-73
2021/09/29 00:38:42;;;;;;;;;;;;;;;;;;5114240;28;19931;-72
2021/09/29 00:41:09;;;;;;;;;;;;;;;;;;5114340;28;20025;-72
2021/09/29 00:43:35;;;;;;;;;;;;;;;;;;5113979;28;19930;-73
2021/09/29 00:46:01;;;;;;;;;;;;;;;;;;5114166;28;19923;-72
2021/09/29 00:48:28;;;;;;;;;;;;;;;;;;5113923;28;20297;-73
2021/09/29 00:50:54;;;;;;;;;;;;;;;;;;5113716;28;19930;-72
2021/09/29 00:53:20;;;;;;;;;;;;;;;;;;5114248;28;19931;-72
2021/09/29 00:55:47;;;;;;;;;;;;;;;;;;5113841;28;19924;-72
2021/09/29 00:58:13;;;;;;;;;;;;;;;;;;5113522;28;19931;-72
2021/09/29 01:00:39;;;;;;;;;;;;;;;;;;5113990;28;20017;-72
2021/09/29 01:03:05;;;;;;;;;;;;;;;;;;5113715;28;20423;-72
2021/09/29 01:05:32;;;;;;;;;;;;;;;;;;5113719;28;19924;-72
2021/09/29 01:07:58;;;;;;;;;;;;;;;;;;5113636;28;19923;-72
2021/09/29 01:10:24;;;;;;;;;;;;;;;;;;5113495;28;20298;-72
2021/09/29 01:12:51;;;;;;;;;;;;;;;;;;5113265;28;19924;-72
2021/09/29 01:15:17;;;;;;;;;;;;;;;;;;5113483;28;19974;-72
2021/09/29 01:17:43;;;;;;;;;;;;;;;;;;5113423;28;19923;-72
2021/09/29 01:20:10;;;;;;;;;;;;;;;;;;5113236;28;20404;-72
2021/09/29 01:22:36;;;;;;;;;;;;;;;;;;5113350;28;19934;-72
2021/09/29 01:25:02;;;;;;;;;;;;;;;;;;5113173;28;19931;-71
2021/09/29 01:27:28;;;;;;;;;;;;;;;;;;5113376;28;20385;-72
2021/09/29 01:29:55;;;;;;;;;;;;;;;;;;5113277;28;19924;-72
2021/09/29 01:32:21;;;;;;;;;;;;;;;;;;5113286;28;20386;-72
2021/09/29 01:34:47;;;;;;;;;;;;;;;;;;5112940;28;19923;-72
2021/09/29 01:37:14;;;;;;;;;;;;;;;;;;5112977;28;19924;-72
2021/09/29 01:39:40;;;;;;;;;;;;;;;;;;5113062;28;19931;-72
2021/09/29 01:42:06;;;;;;;;;;;;;;;;;;5112913;28;19928;-72
2021/09/29 01:44:33;;;;;;;;;;;;;;;;;;5113379;28;19924;-72
2021/09/29 01:46:59;;;;;;;;;;;;;;;;;;5113168;28;19923;-72
2021/09/29 01:49:25;;;;;;;;;;;;;;;;;;5112894;28;20386;-72
2021/09/29 01:51:52;;;;;;;;;;;;;;;;;;5113579;28;19924;-72
2021/09/29 01:54:18;;;;;;;;;;;;;;;;;;5122742;28;19924;-71
2021/09/29 01:56:44;;;;;;;;;;;;;;;;;;5126957;28;19934;-72
2021/09/29 01:59:11;;;;;;;;;;;;;;;;;;5122021;28;20366;-72
2021/09/29 02:01:37;;;;;;;;;;;;;;;;;;5112760;28;19924;-72
2021/09/29 02:04:04;;;;;;;;;;;;;;;;;;5112525;28;20392;-72
2021/09/29 02:06:30;;;;;;;;;;;;;;;;;;5113178;28;19938;-71
2021/09/29 02:08:56;;;;;;;;;;;;;;;;;;5113236;28;19928;-72
2021/09/29 02:11:22;;;;;;;;;;;;;;;;;;5117034;28;19930;-71
2021/09/29 02:13:49;;;;;;;;;;;;;;;;;;5117100;28;19931;-71
2021/09/29 02:16:15;;;;;;;;;;;;;;;;;;5117249;28;19924;-71
2021/09/29 02:18:41;;;;;;;;;;;;;;;;;;5116785;28;19930;-71
2021/09/29 02:21:08;;;;;;;;;;;;;;;;;;5117169;28;19924;-72
2021/09/29 02:23:34;;;;;;;;;;;;;;;;;;5116777;28;20298;-72
2021/09/29 02:26:00;;;;;;;;;;;;;;;;;;5116313;28;19934;-72
2021/09/29 02:28:27;;;;;;;;;;;;;;;;;;5117070;28;19928;-72
2021/09/29 02:30:53;;;;;;;;;;;;;;;;;;5116806;28;19927;-72
2021/09/29 02:33:20;;;;;;;;;;;;;;;;;;5116645;28;20275;-72
2021/09/29 02:35:46;;;;;;;;;;;;;;;;;;5116382;28;19934;-72
2021/09/29 02:38:12;;;;;;;;;;;;;;;;;;5116690;28;19931;-72
2021/09/29 02:40:39;;;;;;;;;;;;;;;;;;5116815;28;19948;-72
2021/09/29 02:43:05;;;;;;;;;;;;;;;;;;5116275;28;19931;-72
2021/09/29 02:45:31;;;;;;;;;;;;;;;;;;5116731;28;19924;-71
2021/09/29 02:47:57;;;;;;;;;;;;;;;;;;5116286;28;19930;-72
2021/09/29 02:50:24;;;;;;;;;;;;;;;;;;5116334;28;19924;-72
2021/09/29 02:52:50;;;;;;;;;;;;;;;;;;5116358;28;19924;-72
2021/09/29 02:55:16;;;;;;;;;;;;;;;;;;5116302;28;19927;-72
2021/09/29 02:57:43;;;;;;;;;;;;;;;;;;5115878;28;20378;-72
2021/09/29 03:00:09;;;;;;;;;;;;;;;;;;5116101;28;19923;-72
2021/09/29 03:02:35;;;;;;;;;;;;;;;;;;5116392;28;19931;-72
2021/09/29 03:05:02;;;;;;;;;;;;;;;;;;5115827;28;20374;-72
2021/09/29 03:07:28;;;;;;;;;;;;;;;;;;5115933;28;19924;-72
2021/09/29 03:09:54;;;;;;;;;;;;;;;;;;5115985;28;19928;-72
2021/09/29 03:12:20;;;;;;;;;;;;;;;;;;5115882;28;20381;-72
2021/09/29 03:14:47;;;;;;;;;;;;;;;;;;5115942;28;19928;-72
2021/09/29 03:17:13;;;;;;;;;;;;;;;;;;5116061;28;19924;-73
2021/09/29 03:19:39;;;;;;;;;;;;;;;;;;5115783;28;19924;-73
2021/09/29 03:22:06;;;;;;;;;;;;;;;;;;5115724;28;19939;-73
2021/09/29 03:24:32;;;;;;;;;;;;;;;;;;5116011;28;20009;-72
2021/09/29 03:26:58;;;;;;;;;;;;;;;;;;5115149;28;19931;-73
2021/09/29 03:29:24;;;;;;;;;;;;;;;;;;5115794;28;19923;-73
2021/09/29 03:31:53;;;;;;;;;;;;;;;;;;5114598;28;21347;-72
2021/09/29 03:34:19;;;;;;;;;;;;;;;;;;5115446;28;19923;-73
2021/09/29 03:36:45;;;;;;;;;;;;;;;;;;5115492;28;19947;-73
2021/09/29 03:39:12;;;;;;;;;;;;;;;;;;5115293;28;19923;-72
2021/09/29 03:41:38;;;;;;;;;;;;;;;;;;5115281;28;19923;-72
2021/09/29 03:44:04;;;;;;;;;;;;;;;;;;5115427;28;19924;-72
2021/09/29 03:46:30;;;;;;;;;;;;;;;;;;5115249;28;20389;-72
2021/09/29 03:48:57;;;;;;;;;;;;;;;;;;5114884;28;19934;-72
2021/09/29 03:51:23;;;;;;;;;;;;;;;;;;5115499;28;19930;-72
2021/09/29 03:53:50;;;;;;;;;;;;;;;;;;5115241;28;19923;-72
2021/09/29 03:56:16;;;;;;;;;;;;;;;;;;5115124;28;20381;-72
2021/09/29 03:58:42;;;;;;;;;;;;;;;;;;5115023;28;19930;-72
2021/09/29 04:01:08;;;;;;;;;;;;;;;;;;5114731;28;20391;-72
2021/09/29 04:03:35;;;;;;;;;;;;;;;;;;5114943;28;19930;-72
2021/09/29 04:06:01;;;;;;;;;;;;;;;;;;5114954;28;19924;-72
2021/09/29 04:08:27;;;;;;;;;;;;;;;;;;5115202;28;20434;-72
2021/09/29 04:10:56;;;;;;;;;;;;;;;;;;5114556;28;19923;-72
2021/09/29 04:13:22;;;;;;;;;;;;;;;;;;5114628;28;19924;-72
2021/09/29 04:15:49;;;;;;;;;;;;;;;;;;5114725;28;19924;-72
2021/09/29 04:18:15;;;;;;;;;;;;;;;;;;5114895;28;19923;-71
2021/09/29 04:20:41;;;;;;;;;;;;;;;;;;5114373;28;19924;-72
2021/09/29 04:23:07;;;;;;;;;;;;;;;;;;5114353;28;19928;-73
2021/09/29 04:25:34;;;;;;;;;;;;;;;;;;5114490;28;19924;-72
2021/09/29 04:28:00;;;;;;;;;;;;;;;;;;5114243;28;19927;-73
2021/09/29 04:30:26;;;;;;;;;;;;;;;;;;5115050;28;19931;-72
2021/09/29 04:32:55;;;;;;;;;;;;;;;;;;5113786;28;20317;-73
2021/09/29 04:35:21;;;;;;;;;;;;;;;;;;5114587;28;19924;-72
2021/09/29 04:37:47;;;;;;;;;;;;;;;;;;5113856;28;19928;-73
2021/09/29 04:40:13;;;;;;;;;;;;;;;;;;5114521;28;19931;-72
2021/09/29 04:42:40;;;;;;;;;;;;;;;;;;5114111;28;20293;-71
2021/09/29 04:45:06;;;;;;;;;;;;;;;;;;5114023;28;19939;-72
2021/09/29 04:47:33;;;;;;;;;;;;;;;;;;5114094;28;19924;-71
2021/09/29 04:49:59;;;;;;;;;;;;;;;;;;5113985;28;19924;-72
2021/09/29 04:52:26;;;;;;;;;;;;;;;;;;5114182;28;19955;-71
2021/09/29 04:54:52;;;;;;;;;;;;;;;;;;5114042;28;19923;-71
2021/09/29 04:57:19;;;;;;;;;;;;;;;;;;5113769;28;20380;-71
2021/09/29 04:59:45;;;;;;;;;;;;;;;;;;5113577;28;19930;-72
2021/09/29 05:02:11;;;;;;;;;;;;;;;;;;5113768;28;19931;-72
2021/09/29 05:04:38;;;;;;;;;;;;;;;;;;5114106;28;19950;-72
2021/09/29 05:07:04;;;;;;;;;;;;;;;;;;5113457;28;19924;-72
2021/09/29 05:09:30;;;;;;;;;;;;;;;;;;5113969;28;19942;-71
2021/09/29 05:11:56;;;;;;;;;;;;;;;;;;5113821;28;19946;-71
2021/09/29 05:14:23;;;;;;;;;;;;;;;;;;5113611;28;19924;-72
2021/09/29 05:16:49;;;;;;;;;;;;;;;;;;5113542;28;19931;-82
2021/09/29 05:19:15;;;;;;;;;;;;;;;;;;5113757;28;19923;-79
2021/09/29 05:21:42;;;;;;;;;;;;;;;;;;5113045;28;19924;-74
2021/09/29 05:24:08;;;;;;;;;;;;;;;;;;5113693;28;19928;-74
2021/09/29 05:26:34;;;;;;;;;;;;;;;;;;5109306;28;19931;-75
2021/09/29 05:29:00;;;;;;;;;;;;;;;;;;5103875;28;19927;-76
2021/09/29 05:31:27;;;;;;;;;;;;;;;;;;5100497;28;19924;-76
2021/09/29 05:33:53;;;;;;;;;;;;;;;;;;5092994;28;19924;-75
2021/09/29 05:36:19;;;;;;;;;;;;;;;;;;5110843;28;19924;-75
2021/09/29 05:38:46;;;;;;;;;;;;;;;;;;5113030;28;19924;-75
2021/09/29 05:41:12;;;;;;;;;;;;;;;;;;5113138;28;20293;-75
2021/09/29 05:43:38;;;;;;;;;;;;;;;;;;5104640;28;19928;-76
2021/09/29 05:46:05;;;;;;;;;;;;;;;;;;5092618;28;19935;-75
2021/09/29 05:48:31;;;;;;;;;;;;;;;;;;5092694;28;19924;-75
2021/09/29 05:50:57;;;;;;;;;;;;;;;;;;5092711;28;19931;-74
2021/09/29 05:53:24;;;;;;;;;;;;;;;;;;5092985;28;19924;-75
2021/09/29 05:55:50;;;;;;;;;;;;;;;;;;5092415;28;19924;-76
2021/09/29 05:58:16;;;;;;;;;;;;;;;;;;5093145;28;19931;-74
2021/09/29 06:00:42;;;;;;;;;;;;;;;;;;5115324;28;19923;-75
2021/09/29 06:03:09;;;;;;;;;;;;;;;;;;5131248;28;19920;-73
2021/09/29 06:05:35;;;;;;;;;;;;;;;;;;5126715;28;19928;-73
2021/09/29 06:08:01;;;;;;;;;;;;;;;;;;5112673;28;19931;-72
2021/09/29 06:10:28;;;;;;;;;;;;;;;;;;5113037;28;19930;-75
2021/09/29 06:12:54;;;;;;;;;;;;;;;;;;5112505;28;19978;-72
2021/09/29 06:15:24;;;;;;;;;;;;;;;;;;5112714;28;20405;-72
2021/09/29 06:17:56;;;;;;;;;;;;;;;;;;5112847;28;19923;-73
2021/09/29 06:20:23;;;;;;;;;;;;;;;;;;5112978;28;20022;-73
2021/09/29 06:22:49;;;;;;;;;;;;;;;;;;5112203;28;19928;-73
2021/09/29 06:25:16;;;;;;;;;;;;;;;;;;5112879;28;19924;-74
2021/09/29 06:27:43;;;;;;;;;;;;;;;;;;5112421;28;19924;-73
2021/09/29 06:30:09;;;;;;;;;;;;;;;;;;5112782;28;19928;-75
2021/09/29 06:32:35;;;;;;;;;;;;;;;;;;5112841;28;20287;-73
2021/09/29 06:35:02;;;;;;;;;;;;;;;;;;5102797;28;19931;-74
2021/09/29 06:37:28;;;;;;;;;;;;;;;;;;5092015;28;19924;-74
2021/09/29 06:39:54;;;;;;;;;;;;;;;;;;5092232;28;19924;-74
2021/09/29 06:42:20;;;;;;;;;;;;;;;;;;5091958;28;19931;-73
2021/09/29 06:44:47;;;;;;;;;;;;;;;;;;5092205;28;19931;-73
2021/09/29 06:47:13;;;;;;;;;;;;;;;;;;5091978;28;20405;-73
2021/09/29 06:49:39;;;;;;;;;;;;;;;;;;5092059;28;19935;-73
2021/09/29 06:52:06;;;;;;;;;;;;;;;;;;5092410;28;19931;-73
2021/09/29 06:54:32;;;;;;;;;;;;;;;;;;5092053;28;20416;-73
2021/09/29 06:56:58;;;;;;;;;;;;;;;;;;5095544;28;19938;-73
2021/09/29 06:59:25;;;;;;;;;;;;;;;;;;5095912;28;19932;-73
2021/09/29 07:01:51;;;;;;;;;;;;;;;;;;5095614;28;20396;-75
2021/09/29 07:04:17;;;;;;;;;;;;;;;;;;5095749;28;19931;-74
2021/09/29 07:06:43;;;;;;;;;;;;;;;;;;5095746;28;19931;-73
2021/09/29 07:09:10;;;;;;;;;;;;;;;;;;5095494;28;19972;-81
2021/09/29 07:11:36;;;;;;;;;;;;;;;;;;5095934;28;19930;-78
2021/09/29 07:14:03;;;;;;;;;;;;;;;;;;5096006;28;20279;-77
2021/09/29 07:16:29;;;;;;;;;;;;;;;;;;5095868;28;20529;-80
2021/09/29 07:19:01;;;;;;;;;;;;;;;;;;5095239;28;19924;-79
2021/09/29 07:21:27;;;;;;;;;;;;;;;;;;5095381;28;19924;-79
2021/09/29 07:23:53;;;;;;;;;;;;;;;;;;5095041;28;19931;-79
2021/09/29 07:26:20;;;;;;;;;;;;;;;;;;5095181;28;19935;-79
2021/09/29 07:28:48;;;;;;;;;;;;;;;;;;5095262;28;20397;-79
2021/09/29 07:31:14;;;;;;;;;;;;;;;;;;5095664;28;19924;-79
2021/09/29 07:33:40;;;;;;;;;;;;;;;;;;5095223;28;19924;-78
2021/09/29 07:36:08;;;;;;;;;;;;;;;;;;5113531;28;19928;-83
2021/09/29 07:38:34;;;;;;;;;;;;;;;;;;5115612;28;20309;-79
2021/09/29 07:41:00;;;;;;;;;;;;;;;;;;5115173;28;19928;-80
2021/09/29 07:43:26;;;;;;;;;;;;;;;;;;5115486;28;19923;-79
2021/09/29 07:45:53;;;;;;;;;;;;;;;;;;5114990;28;20342;-81
2021/09/29 07:48:19;;;;;;;;;;;;;;;;;;5115246;28;19931;-81
2021/09/29 07:50:45;;;;;;;;;;;;;;;;;;5117297;28;19924;-78
2021/09/29 07:53:14;;;;;;;;;;;;;;;;;;5116968;28;20026;-81
2021/09/29 07:55:40;;;;;;;;;;;;;;;;;;5116159;28;20409;-77
2021/09/29 07:58:06;;;;;;;;;;;;;;;;;;5115509;28;20297;-78
2021/09/29 08:00:33;;;;;;;;;;;;;;;;;;5114872;28;19930;-80
2021/09/29 08:02:59;;;;;;;;;;;;;;;;;;5114503;28;19931;-78
2021/09/29 08:05:25;;;;;;;;;;;;;;;;;;5115241;28;19930;-77
2021/09/29 08:07:51;;;;;;;;;;;;;;;;;;5113724;28;20281;-77
2021/09/29 08:10:18;;;;;;;;;;;;;;;;;;5117702;28;19924;-81
2021/09/29 08:12:44;;;;;;;;;;;;;;;;;;5115431;28;19930;-79
2021/09/29 08:15:13;;;;;;;;;;;;;;;;;;5115002;28;20328;-79
2021/09/29 08:17:39;;;;;;;;;;;;;;;;;;5115006;28;19935;-80
2021/09/29 08:20:05;;;;;;;;;;;;;;;;;;5114484;28;19924;-80
2021/09/29 08:22:32;;;;;;;;;;;;;;;;;;5114829;28;19923;-78
2021/09/29 08:25:02;;;;;;;;;;;;;;;;;;5114689;28;19924;-79
2021/09/29 08:27:34;;;;;;;;;;;;;;;;;;5114881;28;20023;-80
2021/09/29 08:30:17;;;;;;;;;;;;;;;;;;5114228;28;20347;-81
2021/09/29 08:32:48;;;;;;;;;;;;;;;;;;5114456;28;19924;-80
2021/09/29 08:35:26;;;;;;;;;;;;;;;;;;5103213;27;20271;-79
2021/09/29 08:37:59;;;;;;;;;;;;;;;;;;5093639;28;20343;-79
2021/09/29 08:40:27;;;;;;;;;;;;;;;;;;5094246;28;19924;-80
2021/09/29 08:43:06;;;;;;;;;;;;;;;;;;5093841;28;19976;-78
2021/09/29 08:45:36;;;;;;;;;;;;;;;;;;5093918;28;19924;-78
2021/09/29 08:48:06;;;;;;;;;;;;;;;;;;5093823;28;19924;-80
2021/09/29 08:50:49;;;;;;;;;;;;;;;;;;5093701;28;19930;-79
2021/09/29 09:15:39;;;;;;;;;;;;;;;;;;5093319;28;19919;-77
2021/09/29 09:18:06;;;;;;;;;;;;;;;;;;5093080;28;19924;-78
2021/09/29 09:20:34;;;;;;;;;;;;;;;;;;5093061;28;19971;-78
2021/09/29 09:23:01;;;;;;;;;;;;;;;;;;5093107;28;19932;-79
2021/09/29 09:25:27;;;;;;;;;;;;;;;;;;5092862;28;20389;-79
2021/09/29 09:27:55;;;;;;;;;;;;;;;;;;5092820;28;19931;-79
2021/09/29 09:30:21;;;;;;;;;;;;;;;;;;5093330;28;19928;-72
2021/09/29 09:32:54;;;;;;;;;;;;;;;;;;5092575;28;20388;-73
2021/09/29 09:35:21;;;;;;;;;;;;;;;;;;5105083;28;20308;-73
2021/09/29 09:37:53;;;;;;;;;;;;;;;;;;5113325;28;19924;-72
2021/09/29 09:40:21;;;;;;;;;;;;;;;;;;5113291;28;19923;-72
2021/09/29 09:42:47;;;;;;;;;;;;;;;;;;5113107;28;19928;-71
2021/09/29 09:45:13;;;;;;;;;;;;;;;;;;5113215;28;19936;-72
2021/09/29 09:47:43;;;;;;;;;;;;;;;;;;5113447;28;19989;-71
2021/09/29 09:50:09;;;;;;;;;;;;;;;;;;5112803;28;19924;-72
2021/09/29 09:52:36;;;;;;;;;;;;;;;;;;5113242;28;19924;-72
2021/09/29 09:55:04;;;;;;;;;;;;;;;;;;5112743;28;19930;-71
2021/09/29 09:57:30;;;;;;;;;;;;;;;;;;5113135;28;19924;-72
2021/09/29 09:59:58;;;;;;;;;;;;;;;;;;5113354;28;19973;-72
2021/09/29 10:02:24;;;;;;;;;;;;;;;;;;5134814;28;19946;-71
2021/09/29 10:04:51;;;;;;;;;;;;;;;;;;5136519;28;19994;-71
2021/09/29 10:07:17;;;;;;;;;;;;;;;;;;5122636;28;19975;-71
2021/09/29 10:09:46;;;;;;;;;;;;;;;;;;5112579;28;19930;-72
2021/09/29 10:12:23;;;;;;;;;;;;;;;;;;5112857;28;19924;-71
2021/09/29 10:15:21;;;;;;;;;;;;;;;;;;5112827;28;19931;-74
2021/09/29 10:23:15;;;;;;;;;;;;;;;;;;5089272;28;20010;-74
2021/09/29 10:28:25;;;;;;;;;;;;;;;;;;5112781;28;20450;-74
2021/09/29 10:30:59;;;;;;;;;;;;;;;;;;5114235;28;19978;-74
2021/09/29 10:33:26;;;;;;;;;;;;;;;;;;5116646;28;20378;-74
2021/09/29 10:36:02;;;;;;;;;;;;;;;;;;5099980;28;19931;-74
2021/09/29 10:44:04;;;;;;;;;;;;;;;;;;5093812;28;19931;-73
2021/09/29 10:46:35;;;;;;;;;;;;;;;;;;5096167;28;19931;-74
2021/09/29 10:49:08;;;;;;;;;;;;;;;;;;5096027;28;19924;-74
2021/09/29 10:51:58;;;;;;;;;;;;;;;;;;5095981;28;19930;-74
2021/09/29 11:30:17;;;;;;;;;;;;;;;;;;5052580;28;20379;-73
2021/09/29 11:32:47;;;;;;;;;;;;;;;;;;5086641;28;19924;-73
2021/09/29 11:35:20;;;;;;;;;;;;;;;;;;5106349;28;19924;-73
2021/09/29 12:08:09;;;;;;;;;;;;;;;;;;5115106;28;19968;-73
2021/09/29 12:10:37;;;;;;;;;;;;;;;;;;5114912;28;19924;-72
2021/09/29 12:13:07;;;;;;;;;;;;;;;;;;5114772;28;20026;-73
2021/09/29 12:15:33;;;;;;;;;;;;;;;;;;5114797;28;19923;-72
2021/09/29 12:17:59;;;;;;;;;;;;;;;;;;5114340;28;19930;-73
2021/09/29 12:20:27;;;;;;;;;;;;;;;;;;5114940;28;19924;-73
2021/09/29 12:22:55;;;;;;;;;;;;;;;;;;5114285;28;20445;-74
2021/09/29 12:25:21;;;;;;;;;;;;;;;;;;5114493;28;19931;-73
2021/09/29 12:27:54;;;;;;;;;;;;;;;;;;5114674;28;19924;-72
2021/09/29 12:30:22;;;;;;;;;;;;;;;;;;5114470;28;19924;-72
2021/09/29 12:32:55;;;;;;;;;;;;;;;;;;5114148;28;20327;-72
2021/09/29 12:35:33;;;;;;;;;;;;;;;;;;5102352;28;20045;-72
2021/09/29 12:37:59;;;;;;;;;;;;;;;;;;5093424;28;20260;-72
2021/09/29 12:40:26;;;;;;;;;;;;;;;;;;5093902;28;19938;-72
2021/09/29 12:42:52;;;;;;;;;;;;;;;;;;5093726;28;19932;-72
2021/09/29 12:45:18;;;;;;;;;;;;;;;;;;5093718;28;20278;-72
2021/09/29 12:47:46;;;;;;;;;;;;;;;;;;5093589;28;19924;-72
2021/09/29 12:50:15;;;;;;;;;;;;;;;;;;5093961;28;19930;-72
2021/09/29 12:52:49;;;;;;;;;;;;;;;;;;5092823;28;19972;-72
2021/09/29 12:55:20;;;;;;;;;;;;;;;;;;5093832;28;19935;-72
2021/09/29 12:57:46;;;;;;;;;;;;;;;;;;5093348;28;19932;-72
2021/09/29 13:00:13;;;;;;;;;;;;;;;;;;5093719;28;19924;-72
2021/09/29 13:02:40;;;;;;;;;;;;;;;;;;5093437;28;19924;-71
2021/09/29 13:05:06;;;;;;;;;;;;;;;;;;5093431;28;19924;-72
2021/09/29 13:07:32;;;;;;;;;;;;;;;;;;5093697;28;19931;-72
2021/09/29 13:09:59;;;;;;;;;;;;;;;;;;5093100;28;20301;-72
2021/09/29 13:12:25;;;;;;;;;;;;;;;;;;5093179;28;19924;-72
2021/09/29 13:14:51;;;;;;;;;;;;;;;;;;5092932;28;19928;-72
2021/09/29 13:17:18;;;;;;;;;;;;;;;;;;5093193;28;19930;-73
2021/09/29 13:19:49;;;;;;;;;;;;;;;;;;5092965;28;19924;-72
2021/09/29 13:22:19;;;;;;;;;;;;;;;;;;5093397;28;19977;-72
2021/09/29 13:25:04;;;;;;;;;;;;;;;;;;5092696;28;19924;-72
2021/09/29 13:35:05;;;;;;;;;;;;;;;;;;5093364;28;19924;-73
2021/09/29 13:38:45;;;;;;;;;;;;;;;;;;5112971;28;19920;-73
2021/09/29 13:41:11;;;;;;;;;;;;;;;;;;5113138;28;19976;-72
2021/09/29 13:43:37;;;;;;;;;;;;;;;;;;5113446;28;19923;-74
2021/09/29 13:46:04;;;;;;;;;;;;;;;;;;5113233;28;19924;-72
2021/09/29 13:48:30;;;;;;;;;;;;;;;;;;5113074;28;20393;-72
2021/09/29 13:50:56;;;;;;;;;;;;;;;;;;5112688;28;19930;-72
2021/09/29 13:53:26;;;;;;;;;;;;;;;;;;5112980;28;19924;-72
2021/09/29 13:55:52;;;;;;;;;;;;;;;;;;5113070;28;19935;-71
2021/09/29 13:58:32;;;;;;;;;;;;;;;;;;5113528;28;19930;-72
2021/09/29 14:01:14;;;;;;;;;;;;;;;;;;5113139;28;19923;-72
2021/09/29 14:14:09;;;;;;;;;;;;;;;;;;5127003;28;19918;-72
2021/09/29 14:15:15;;;;;;;;;;;;;;;;;;5112588;28;19995;-73
2021/09/29 14:28:42;;;;;;;;;;;;;;;;;;5112327;28;19919;-73
2021/09/29 14:31:14;;;;;;;;;;;;;;;;;;5112493;28;20027;-73
2021/09/29 14:33:44;;;;;;;;;;;;;;;;;;5112891;28;19923;-73
2021/09/29 14:36:11;;;;;;;;;;;;;;;;;;5093699;28;19924;-73
2021/09/29 14:38:37;;;;;;;;;;;;;;;;;;5092323;28;19963;-73
2021/09/29 14:41:03;;;;;;;;;;;;;;;;;;5091888;28;19931;-73
2021/09/29 14:43:30;;;;;;;;;;;;;;;;;;5092126;28;19924;-73
2021/09/29 14:45:56;;;;;;;;;;;;;;;;;;5092274;28;19930;-73
2021/09/29 14:48:22;;;;;;;;;;;;;;;;;;5091931;28;20297;-73
2021/09/29 14:50:50;;;;;;;;;;;;;;;;;;5091890;28;19924;-73
2021/09/29 14:53:16;;;;;;;;;;;;;;;;;;5092455;28;19924;-73
2021/09/29 14:55:42;;;;;;;;;;;;;;;;;;5092044;28;19934;-73
2021/09/29 14:58:09;;;;;;;;;;;;;;;;;;5092030;28;19924;-73
2021/09/29 15:00:35;;;;;;;;;;;;;;;;;;5092342;28;19931;-73
2021/09/29 15:03:01;;;;;;;;;;;;;;;;;;5091752;28;20409;-72
2021/09/29 15:05:27;;;;;;;;;;;;;;;;;;5092256;28;19924;-73
2021/09/29 15:07:54;;;;;;;;;;;;;;;;;;5092107;28;20105;-74
2021/09/29 15:10:20;;;;;;;;;;;;;;;;;;5091857;28;20267;-72
2021/09/29 15:12:47;;;;;;;;;;;;;;;;;;5091555;28;20393;-72
2021/09/29 15:15:22;;;;;;;;;;;;;;;;;;5091894;28;19928;-72
2021/09/29 15:17:54;;;;;;;;;;;;;;;;;;5095123;28;19923;-74
2021/09/29 15:20:25;;;;;;;;;;;;;;;;;;5095578;28;20046;-73
2021/09/29 15:23:11;;;;;;;;;;;;;;;;;;5095161;28;19979;-73
2021/09/29 15:26:04;;;;;;;;;;;;;;;;;;5095461;28;20006;-73
2021/09/29 15:47:46;;;;;;;;;;;;;;;;;;5115460;28;19915;-77
2021/09/29 15:50:23;;;;;;;;;;;;;;;;;;5115722;28;19924;-77
2021/09/29 15:52:57;;;;;;;;;;;;;;;;;;5115172;28;20390;-78
2021/09/29 15:55:30;;;;;;;;;;;;;;;;;;5115226;28;20270;-75
2021/09/29 15:58:15;;;;;;;;;;;;;;;;;;5114961;28;19985;-73
2021/09/29 16:03:40;;;;;;;;;;;;;;;;;;5112772;28;19923;-74
2021/09/29 16:06:22;;;;;;;;;;;;;;;;;;5114990;28;20328;-74
2021/09/29 16:12:06;;;;;;;;;;;;;;;;;;5091687;28;19919;-75
2021/09/29 16:14:48;;;;;;;;;;;;;;;;;;5115062;28;19924;-74
2021/09/29 16:22:58;;;;;;;;;;;;;;;;;;5114920;28;19920;-74
2021/09/29 16:31:05;;;;;;;;;;;;;;;;;;5096125;28;19974;-74
2021/09/29 16:33:46;;;;;;;;;;;;;;;;;;5114842;28;19923;-74
2021/09/29 16:36:13;;;;;;;;;;;;;;;;;;5095019;28;19967;-74
2021/09/29 16:38:39;;;;;;;;;;;;;;;;;;5094166;28;19924;-74
2021/09/29 16:41:05;;;;;;;;;;;;;;;;;;5093691;28;20302;-75
2021/09/29 16:43:32;;;;;;;;;;;;;;;;;;5093912;28;19928;-73
2021/09/29 16:45:59;;;;;;;;;;;;;;;;;;5093772;28;19924;-73
2021/09/29 16:48:27;;;;;;;;;;;;;;;;;;5093733;28;20370;-72
2021/09/29 16:51:02;;;;;;;;;;;;;;;;;;5093788;28;20051;-68
2021/09/29 16:53:31;;;;;;;;;;;;;;;;;;5093988;28;19928;-68
2021/09/29 16:55:58;;;;;;;;;;;;;;;;;;5093318;28;20023;-68
2021/09/29 16:58:28;;;;;;;;;;;;;;;;;;5093804;28;19962;-68
2021/09/29 17:00:56;;;;;;;;;;;;;;;;;;5093243;28;19928;-68
2021/09/29 17:03:22;;;;;;;;;;;;;;;;;;5093801;28;19924;-68
2021/09/29 17:05:49;;;;;;;;;;;;;;;;;;5092995;28;20404;-67
2021/09/29 17:08:15;;;;;;;;;;;;;;;;;;5093389;28;19924;-68
2021/09/29 17:10:41;;;;;;;;;;;;;;;;;;5093373;28;19924;-68
2021/09/29 17:13:10;;;;;;;;;;;;;;;;;;5093208;28;20401;-69
2021/09/29 17:15:36;;;;;;;;;;;;;;;;;;5093073;28;20378;-68
2021/09/29 17:18:02;;;;;;;;;;;;;;;;;;5092934;28;19924;-68
2021/09/29 17:20:29;;;;;;;;;;;;;;;;;;5093428;28;19924;-69
2021/09/29 17:22:58;;;;;;;;;;;;;;;;;;5092814;28;19924;-69
2021/09/29 17:25:25;;;;;;;;;;;;;;;;;;5092695;28;19975;-70
2021/09/29 17:27:51;;;;;;;;;;;;;;;;;;5092712;28;19977;-68
2021/09/29 17:30:19;;;;;;;;;;;;;;;;;;5093268;28;19931;-68
2021/09/29 17:33:03;;;;;;;;;;;;;;;;;;5093057;28;19924;-67
2021/09/29 17:35:36;;;;;;;;;;;;;;;;;;5105861;28;19928;-68
2021/09/29 17:38:24;;;;;;;;;;;;;;;;;;5113246;28;19985;-69
2021/09/29 17:54:31;;;;;;;;;;;;;;;;;;5113157;28;19964;-71
2021/09/29 17:56:58;;;;;;;;;;;;;;;;;;5112630;28;19924;-71
2021/09/29 17:59:24;;;;;;;;;;;;;;;;;;5113186;28;19927;-72
2021/09/29 18:01:51;;;;;;;;;;;;;;;;;;5112601;28;20382;-72
2021/09/29 18:04:23;;;;;;;;;;;;;;;;;;5112895;28;19930;-72
2021/09/29 18:07:09;;;;;;;;;;;;;;;;;;5112842;28;20400;-72
2021/09/29 18:09:35;;;;;;;;;;;;;;;;;;5113178;28;19924;-72
2021/09/29 18:12:02;;;;;;;;;;;;;;;;;;5112600;28;20271;-72
2021/09/29 18:14:28;;;;;;;;;;;;;;;;;;5112971;28;19934;-72
2021/09/29 18:16:54;;;;;;;;;;;;;;;;;;5113192;28;19932;-73
2021/09/29 18:19:21;;;;;;;;;;;;;;;;;;5113744;28;20297;-72
2021/09/29 18:21:47;;;;;;;;;;;;;;;;;;5120401;28;19924;-73
2021/09/29 18:24:13;;;;;;;;;;;;;;;;;;5135470;28;19988;-73
2021/09/29 18:26:39;;;;;;;;;;;;;;;;;;5136568;28;19924;-73
2021/09/29 18:29:06;;;;;;;;;;;;;;;;;;5120689;28;19923;-73
2021/09/29 18:31:33;;;;;;;;;;;;;;;;;;5113055;28;20285;-73
2021/09/29 18:34:00;;;;;;;;;;;;;;;;;;5111844;28;20369;-73
2021/09/29 18:36:29;;;;;;;;;;;;;;;;;;5092664;28;19930;-72
2021/09/29 18:38:56;;;;;;;;;;;;;;;;;;5092237;28;19991;-72
2021/09/29 18:41:24;;;;;;;;;;;;;;;;;;5092196;28;19924;-73
2021/09/29 18:43:52;;;;;;;;;;;;;;;;;;5092311;28;19932;-72
2021/09/29 18:46:21;;;;;;;;;;;;;;;;;;5092394;28;19979;-72
2021/09/29 18:48:53;;;;;;;;;;;;;;;;;;5092319;28;20011;-73
2021/09/29 18:51:19;;;;;;;;;;;;;;;;;;5093017;28;19928;-73
2021/09/29 18:53:55;;;;;;;;;;;;;;;;;;5096172;28;19967;-72
2021/09/29 18:56:42;;;;;;;;;;;;;;;;;;5096004;28;19924;-72
2021/09/29 19:07:24;;;;;;;;;;;;;;;;;;5095384;28;19971;-72
2021/09/29 19:09:50;;;;;;;;;;;;;;;;;;5095592;28;19925;-72
2021/09/29 19:12:16;;;;;;;;;;;;;;;;;;5095474;28;20397;-73
2021/09/29 19:14:43;;;;;;;;;;;;;;;;;;5095025;28;20000;-74
2021/09/29 19:17:09;;;;;;;;;;;;;;;;;;5095628;28;19931;-73
2021/09/29 19:19:36;;;;;;;;;;;;;;;;;;5095658;28;19924;-73
2021/09/29 19:22:02;;;;;;;;;;;;;;;;;;5095021;28;19936;-73
2021/09/29 19:24:28;;;;;;;;;;;;;;;;;;5095426;28;19932;-73
2021/09/29 19:26:56;;;;;;;;;;;;;;;;;;5094778;28;19928;-72
2021/09/29 19:29:22;;;;;;;;;;;;;;;;;;5094951;28;19924;-73
2021/09/29 19:31:48;;;;;;;;;;;;;;;;;;5095029;28;19931;-74
2021/09/29 19:34:14;;;;;;;;;;;;;;;;;;5097921;28;20353;-73
2021/09/29 19:36:42;;;;;;;;;;;;;;;;;;5115083;28;19938;-72
2021/09/29 19:39:09;;;;;;;;;;;;;;;;;;5115320;28;19924;-73
2021/09/29 19:41:35;;;;;;;;;;;;;;;;;;5115673;28;20027;-75
2021/09/29 19:44:05;;;;;;;;;;;;;;;;;;5114883;28;20297;-73
2021/09/29 19:46:33;;;;;;;;;;;;;;;;;;5115534;28;19951;-74
2021/09/29 19:49:14;;;;;;;;;;;;;;;;;;5115446;28;19930;-74
2021/09/29 20:08:27;;;;;;;;;;;;;;;;;;5151463;27;19922;-72
2021/09/29 20:10:58;;;;;;;;;;;;;;;;;;5151057;27;19923;-73
2021/09/29 20:13:25;;;;;;;;;;;;;;;;;;5151141;27;19928;-74
2021/09/29 20:15:51;;;;;;;;;;;;;;;;;;5151235;27;19924;-73
2021/09/29 20:18:18;;;;;;;;;;;;;;;;;;5151122;27;20293;-74